sensor_id;sensor_type;location;lat;lon;timestamp;pressure;altitude;pressure_sealevel;temperature;humidity
71948;BME280;63257;55.082;38.772;2022-12-18T00:01:12;99128.81;;;-2.22;85.81
71948;BME280;63257;55.082;38.772;2022-12-18T00:03:39;99112.56;;;-2.30;86.67
71948;BME280;63257;55.082;38.772;2022-12-18T00:06:04;99134.06;;;-2.28;86.55
71948;BME280;63257;55.082;38.772;2022-12-18T00:08:30;99131.66;;;-2.39;86.50
71948;BME280;63257;55.082;38.772;2022-12-18T00:11:10;99129.00;;;-2.36;87.04
71948;BME280;63257;55.082;38.772;2022-12-18T00:13:45;99138.44;;;-2.32;86.16
71948;BME280;63257;55.082;38.772;2022-12-18T00:16:17;99132.47;;;-2.37;86.44
71948;BME280;63257;55.082;38.772;2022-12-18T00:18:45;99144.47;;;-2.33;85.94
71948;BME280;63257;55.082;38.772;2022-12-18T00:21:12;99128.88;;;-2.28;86.28
71948;BME280;63257;55.082;38.772;2022-12-18T00:23:39;99119.53;;;-2.37;85.73
71948;BME280;63257;55.082;38.772;2022-12-18T00:26:10;99087.81;;;-2.47;86.49
71948;BME280;63257;55.082;38.772;2022-12-18T00:28:36;99111.63;;;-2.26;86.00
71948;BME280;63257;55.082;38.772;2022-12-18T00:31:07;99098.09;;;-2.44;86.35
71948;BME280;63257;55.082;38.772;2022-12-18T00:33:34;99094.72;;;-2.49;86.59
71948;BME280;63257;55.082;38.772;2022-12-18T00:36:11;99086.06;;;-2.46;87.12
71948;BME280;63257;55.082;38.772;2022-12-18T00:38:38;99059.44;;;-2.53;86.79
71948;BME280;63257;55.082;38.772;2022-12-18T00:41:05;99050.19;;;-2.66;86.41
71948;BME280;63257;55.082;38.772;2022-12-18T00:43:31;99083.50;;;-2.48;86.17
71948;BME280;63257;55.082;38.772;2022-12-18T00:45:59;99074.22;;;-2.63;86.55
71948;BME280;63257;55.082;38.772;2022-12-18T00:48:25;99071.56;;;-2.57;86.52
71948;BME280;63257;55.082;38.772;2022-12-18T00:50:51;99057.13;;;-2.70;86.83
71948;BME280;63257;55.082;38.772;2022-12-18T00:53:17;99048.31;;;-2.57;86.49
71948;BME280;63257;55.082;38.772;2022-12-18T00:55:43;99050.97;;;-2.63;86.41
71948;BME280;63257;55.082;38.772;2022-12-18T00:58:10;99038.91;;;-2.61;86.28
71948;BME280;63257;55.082;38.772;2022-12-18T01:00:38;99038.91;;;-2.61;86.58
71948;BME280;63257;55.082;38.772;2022-12-18T01:03:04;99009.97;;;-2.86;86.41
71948;BME280;63257;55.082;38.772;2022-12-18T01:05:32;99017.66;;;-2.81;86.93
71948;BME280;63257;55.082;38.772;2022-12-18T01:07:58;99012.56;;;-2.84;87.09
71948;BME280;63257;55.082;38.772;2022-12-18T01:10:25;99009.13;;;-2.86;86.95
71948;BME280;63257;55.082;38.772;2022-12-18T01:12:51;98988.50;;;-2.88;86.92
71948;BME280;63257;55.082;38.772;2022-12-18T01:15:19;98989.31;;;-2.87;87.01
71948;BME280;63257;55.082;38.772;2022-12-18T01:17:44;98995.25;;;-2.81;87.08
71948;BME280;63257;55.082;38.772;2022-12-18T01:20:12;98997.88;;;-2.82;86.47
71948;BME280;63257;55.082;38.772;2022-12-18T01:22:38;98989.25;;;-2.81;86.57
71948;BME280;63257;55.082;38.772;2022-12-18T01:25:07;98988.38;;;-2.82;86.66
71948;BME280;63257;55.082;38.772;2022-12-18T01:27:34;98961.03;;;-2.94;86.19
71948;BME280;63257;55.082;38.772;2022-12-18T01:30:03;98972.88;;;-2.82;86.44
71948;BME280;63257;55.082;38.772;2022-12-18T01:32:30;98977.16;;;-2.79;86.66
71948;BME280;63257;55.082;38.772;2022-12-18T01:34:57;98971.31;;;-2.91;86.22
71948;BME280;63257;55.082;38.772;2022-12-18T01:37:23;98962.72;;;-2.94;85.78
71948;BME280;63257;55.082;38.772;2022-12-18T01:39:49;98972.16;;;-2.88;85.72
71948;BME280;63257;55.082;38.772;2022-12-18T01:42:16;98947.38;;;-3.02;85.82
71948;BME280;63257;55.082;38.772;2022-12-18T01:47:48;98951.47;;;-2.90;85.34
71948;BME280;63257;55.082;38.772;2022-12-18T01:52:50;98941.22;;;-2.93;85.18
71948;BME280;63257;55.082;38.772;2022-12-18T01:55:19;98936.81;;;-2.86;85.26
71948;BME280;63257;55.082;38.772;2022-12-18T01:57:47;98919.72;;;-2.95;84.84
71948;BME280;63257;55.082;38.772;2022-12-18T02:00:16;98932.50;;;-2.84;84.57
71948;BME280;63257;55.082;38.772;2022-12-18T02:02:44;98931.59;;;-2.83;84.71
71948;BME280;63257;55.082;38.772;2022-12-18T02:05:15;98929.94;;;-2.87;84.41
71948;BME280;63257;55.082;38.772;2022-12-18T02:07:50;98915.50;;;-2.99;84.65
71948;BME280;63257;55.082;38.772;2022-12-18T02:10:30;98914.66;;;-3.03;84.69
71948;BME280;63257;55.082;38.772;2022-12-18T02:13:18;98920.69;;;-3.04;85.05
71948;BME280;63257;55.082;38.772;2022-12-18T02:18:40;98932.91;;;-3.15;84.68
71948;BME280;63257;55.082;38.772;2022-12-18T02:24:18;98926.75;;;-3.05;85.27
71948;BME280;63257;55.082;38.772;2022-12-18T02:26:56;98919.25;;;-3.24;84.40
71948;BME280;63257;55.082;38.772;2022-12-18T02:29:41;98909.78;;;-3.21;84.73
71948;BME280;63257;55.082;38.772;2022-12-18T02:32:13;98907.19;;;-3.23;84.91
71948;BME280;63257;55.082;38.772;2022-12-18T02:34:40;98895.28;;;-3.32;84.97
71948;BME280;63257;55.082;38.772;2022-12-18T02:37:14;98914.03;;;-3.19;84.31
71948;BME280;63257;55.082;38.772;2022-12-18T02:39:43;98901.28;;;-3.31;84.45
71948;BME280;63257;55.082;38.772;2022-12-18T02:42:16;98910.78;;;-3.32;84.31
71948;BME280;63257;55.082;38.772;2022-12-18T02:44:48;98904.75;;;-3.31;84.60
71948;BME280;63257;55.082;38.772;2022-12-18T02:47:20;98897.03;;;-3.32;84.59
71948;BME280;63257;55.082;38.772;2022-12-18T02:52:45;98912.31;;;-3.18;84.15
71948;BME280;63257;55.082;38.772;2022-12-18T03:00:53;98891.84;;;-3.31;84.82
71948;BME280;63257;55.082;38.772;2022-12-18T03:03:31;98857.75;;;-3.53;84.83
71948;BME280;63257;55.082;38.772;2022-12-18T03:06:06;98918.50;;;-3.32;84.55
71948;BME280;63257;55.082;38.772;2022-12-18T03:08:42;98890.22;;;-3.39;84.94
71948;BME280;63257;55.082;38.772;2022-12-18T03:11:12;98898.88;;;-3.42;84.91
71948;BME280;63257;55.082;38.772;2022-12-18T03:13:46;98908.41;;;-3.47;84.61
71948;BME280;63257;55.082;38.772;2022-12-18T03:16:22;98904.13;;;-3.50;84.71
71948;BME280;63257;55.082;38.772;2022-12-18T03:19:01;98872.50;;;-3.63;84.89
71948;BME280;63257;55.082;38.772;2022-12-18T03:21:41;98905.09;;;-3.60;84.75
71948;BME280;63257;55.082;38.772;2022-12-18T03:24:09;98905.13;;;-3.59;84.69
71948;BME280;63257;55.082;38.772;2022-12-18T03:26:40;98881.13;;;-3.68;84.78
71948;BME280;63257;55.082;38.772;2022-12-18T03:29:12;98881.16;;;-3.70;84.72
71948;BME280;63257;55.082;38.772;2022-12-18T03:31:42;98905.09;;;-3.57;85.13
71948;BME280;63257;55.082;38.772;2022-12-18T03:34:26;98905.13;;;-3.62;85.39
71948;BME280;63257;55.082;38.772;2022-12-18T03:36:54;98909.50;;;-3.67;84.64
71948;BME280;63257;55.082;38.772;2022-12-18T03:39:22;98918.00;;;-3.59;85.01
71948;BME280;63257;55.082;38.772;2022-12-18T03:45:04;98865.94;;;-3.88;84.76
71948;BME280;63257;55.082;38.772;2022-12-18T03:47:49;98909.44;;;-3.62;85.47
71948;BME280;63257;55.082;38.772;2022-12-18T03:53:02;98901.91;;;-3.81;84.76
71948;BME280;63257;55.082;38.772;2022-12-18T03:55:35;98831.09;;;-4.23;85.69
71948;BME280;63257;55.082;38.772;2022-12-18T03:58:05;98896.72;;;-3.76;85.27
71948;BME280;63257;55.082;38.772;2022-12-18T04:00:45;98873.72;;;-3.95;84.71
71948;BME280;63257;55.082;38.772;2022-12-18T04:03:13;98872.91;;;-3.98;85.00
71948;BME280;63257;55.082;38.772;2022-12-18T04:05:47;98892.50;;;-3.82;85.00
71948;BME280;63257;55.082;38.772;2022-12-18T04:08:16;98907.19;;;-3.90;85.38
71948;BME280;63257;55.082;38.772;2022-12-18T04:10:49;98916.63;;;-3.90;85.53
71948;BME280;63257;55.082;38.772;2022-12-18T04:13:27;98911.47;;;-3.90;84.82
71948;BME280;63257;55.082;38.772;2022-12-18T04:15:55;98914.94;;;-3.92;84.78
71948;BME280;63257;55.082;38.772;2022-12-18T04:18:22;98938.16;;;-3.95;84.71
71948;BME280;63257;55.082;38.772;2022-12-18T04:20:48;98934.69;;;-3.90;84.10
71948;BME280;63257;55.082;38.772;2022-12-18T04:23:16;98926.22;;;-4.02;83.94
71948;BME280;63257;55.082;38.772;2022-12-18T04:25:42;98938.31;;;-4.09;84.28
71948;BME280;63257;55.082;38.772;2022-12-18T04:28:14;98928.94;;;-4.14;84.08
71948;BME280;63257;55.082;38.772;2022-12-18T04:30:40;98922.00;;;-4.09;84.22
71948;BME280;63257;55.082;38.772;2022-12-18T04:33:10;98934.03;;;-4.11;84.34
71948;BME280;63257;55.082;38.772;2022-12-18T04:35:37;98945.94;;;-3.98;84.54
71948;BME280;63257;55.082;38.772;2022-12-18T04:38:03;98950.22;;;-3.95;84.21
71948;BME280;63257;55.082;38.772;2022-12-18T04:40:30;98975.16;;;-3.99;83.91
71948;BME280;63257;55.082;38.772;2022-12-18T04:42:56;98961.50;;;-4.07;83.82
71948;BME280;63257;55.082;38.772;2022-12-18T04:45:22;98970.19;;;-4.16;83.05
71948;BME280;63257;55.082;38.772;2022-12-18T04:47:48;98985.56;;;-4.10;83.64
71948;BME280;63257;55.082;38.772;2022-12-18T04:50:14;98985.72;;;-4.25;83.87
71948;BME280;63257;55.082;38.772;2022-12-18T04:52:40;98976.31;;;-4.29;83.76
71948;BME280;63257;55.082;38.772;2022-12-18T04:55:06;98994.22;;;-4.15;84.06
71948;BME280;63257;55.082;38.772;2022-12-18T04:57:32;99006.22;;;-4.11;83.74
71948;BME280;63257;55.082;38.772;2022-12-18T04:59:58;98995.25;;;-4.35;83.35
71948;BME280;63257;55.082;38.772;2022-12-18T05:02:24;99037.22;;;-4.19;83.06
71948;BME280;63257;55.082;38.772;2022-12-18T05:04:49;99032.16;;;-4.31;83.69
71948;BME280;63257;55.082;38.772;2022-12-18T05:07:15;99036.50;;;-4.38;83.79
71948;BME280;63257;55.082;38.772;2022-12-18T05:09:41;99041.69;;;-4.46;83.89
71948;BME280;63257;55.082;38.772;2022-12-18T05:12:07;99043.38;;;-4.41;84.46
71948;BME280;63257;55.082;38.772;2022-12-18T05:14:34;99056.31;;;-4.48;84.48
71948;BME280;63257;55.082;38.772;2022-12-18T05:17:00;99058.03;;;-4.48;84.11
71948;BME280;63257;55.082;38.772;2022-12-18T05:19:26;99029.00;;;-4.72;84.42
71948;BME280;63257;55.082;38.772;2022-12-18T05:21:52;99059.78;;;-4.56;84.17
71948;BME280;63257;55.082;38.772;2022-12-18T05:24:17;99062.41;;;-4.63;84.42
71948;BME280;63257;55.082;38.772;2022-12-18T05:26:43;99073.53;;;-4.54;84.41
71948;BME280;63257;55.082;38.772;2022-12-18T05:29:09;99078.75;;;-4.67;84.45
71948;BME280;63257;55.082;38.772;2022-12-18T05:31:38;99084.72;;;-4.63;84.32
71948;BME280;63257;55.082;38.772;2022-12-18T05:34:05;99072.81;;;-4.78;84.80
71948;BME280;63257;55.082;38.772;2022-12-18T05:36:32;99089.06;;;-4.67;84.28
71948;BME280;63257;55.082;38.772;2022-12-18T05:38:57;99089.06;;;-4.68;84.45
71948;BME280;63257;55.082;38.772;2022-12-18T05:41:23;99086.56;;;-4.82;84.49
71948;BME280;63257;55.082;38.772;2022-12-18T05:43:49;99102.00;;;-4.79;84.24
71948;BME280;63257;55.082;38.772;2022-12-18T05:46:16;99096.81;;;-4.76;84.59
71948;BME280;63257;55.082;38.772;2022-12-18T05:48:45;99088.25;;;-4.81;84.19
71948;BME280;63257;55.082;38.772;2022-12-18T05:51:16;99091.63;;;-4.67;83.85
71948;BME280;63257;55.082;38.772;2022-12-18T05:53:43;99088.19;;;-4.69;84.00
71948;BME280;63257;55.082;38.772;2022-12-18T05:56:13;99109.69;;;-4.78;84.32
71948;BME280;63257;55.082;38.772;2022-12-18T05:58:41;99101.13;;;-4.75;84.33
71948;BME280;63257;55.082;38.772;2022-12-18T06:01:14;99104.50;;;-4.71;84.16
71948;BME280;63257;55.082;38.772;2022-12-18T06:03:40;99125.94;;;-4.63;83.73
71948;BME280;63257;55.082;38.772;2022-12-18T06:06:17;99107.22;;;-4.95;83.90
71948;BME280;63257;55.082;38.772;2022-12-18T06:08:44;99120.00;;;-4.76;83.31
71948;BME280;63257;55.082;38.772;2022-12-18T06:11:11;99160.34;;;-4.78;83.15
71948;BME280;63257;55.082;38.772;2022-12-18T06:13:37;99143.13;;;-4.73;83.41
71948;BME280;63257;55.082;38.772;2022-12-18T06:16:04;99144.91;;;-4.77;83.17
71948;BME280;63257;55.082;38.772;2022-12-18T06:18:30;99164.63;;;-4.80;82.81
71948;BME280;63257;55.082;38.772;2022-12-18T06:20:57;99180.06;;;-4.75;82.88
71948;BME280;63257;55.082;38.772;2022-12-18T06:23:24;99146.63;;;-4.88;82.43
71948;BME280;63257;55.082;38.772;2022-12-18T06:25:50;99168.91;;;-4.78;82.37
71948;BME280;63257;55.082;38.772;2022-12-18T06:28:16;99173.22;;;-4.81;82.53
71948;BME280;63257;55.082;38.772;2022-12-18T06:30:44;99204.97;;;-4.76;82.65
71948;BME280;63257;55.082;38.772;2022-12-18T06:33:10;99186.06;;;-4.72;82.12
71948;BME280;63257;55.082;38.772;2022-12-18T06:35:36;99192.00;;;-4.51;81.90
71948;BME280;63257;55.082;38.772;2022-12-18T06:38:02;99206.63;;;-4.58;81.33
71948;BME280;63257;55.082;38.772;2022-12-18T06:40:28;99211.75;;;-4.58;80.26
71948;BME280;63257;55.082;38.772;2022-12-18T06:42:54;99228.94;;;-4.58;80.87
71948;BME280;63257;55.082;38.772;2022-12-18T06:45:20;99214.38;;;-4.72;80.40
71948;BME280;63257;55.082;38.772;2022-12-18T06:47:46;99230.72;;;-4.70;80.03
71948;BME280;63257;55.082;38.772;2022-12-18T06:50:12;99242.69;;;-4.60;80.35
71948;BME280;63257;55.082;38.772;2022-12-18T06:52:39;99218.69;;;-4.71;79.53
71948;BME280;63257;55.082;38.772;2022-12-18T06:55:06;99244.44;;;-4.71;78.86
71948;BME280;63257;55.082;38.772;2022-12-18T06:57:34;99232.41;;;-4.72;78.43
71948;BME280;63257;55.082;38.772;2022-12-18T07:00:05;99256.47;;;-4.70;78.21
71948;BME280;63257;55.082;38.772;2022-12-18T07:02:32;99270.16;;;-4.60;77.86
71948;BME280;63257;55.082;38.772;2022-12-18T07:04:59;99265.03;;;-4.69;78.49
71948;BME280;63257;55.082;38.772;2022-12-18T07:07:24;99271.00;;;-4.60;78.54
71948;BME280;63257;55.082;38.772;2022-12-18T07:09:50;99245.25;;;-4.60;78.13
71948;BME280;63257;55.082;38.772;2022-12-18T07:12:16;99271.88;;;-4.64;77.69
71948;BME280;63257;55.082;38.772;2022-12-18T07:14:43;99276.19;;;-4.72;77.78
71948;BME280;63257;55.082;38.772;2022-12-18T07:17:31;99261.63;;;-4.81;77.85
71948;BME280;63257;55.082;38.772;2022-12-18T07:20:57;99282.19;;;-4.62;77.45
71948;BME280;63257;55.082;38.772;2022-12-18T07:27:02;99292.44;;;-4.40;76.78
71948;BME280;63257;55.082;38.772;2022-12-18T07:29:28;99247.81;;;-4.56;76.46
71948;BME280;63257;55.082;38.772;2022-12-18T07:31:54;99296.72;;;-4.38;75.27
71948;BME280;63257;55.082;38.772;2022-12-18T07:34:20;99291.53;;;-4.29;75.34
71948;BME280;63257;55.082;38.772;2022-12-18T07:36:56;99244.44;;;-4.77;74.94
71948;BME280;63257;55.082;38.772;2022-12-18T07:39:52;99317.38;;;-4.60;75.16
71948;BME280;63257;55.082;38.772;2022-12-18T07:42:17;99301.03;;;-4.54;75.08
71948;BME280;63257;55.082;38.772;2022-12-18T07:44:59;99323.38;;;-4.53;75.25
71948;BME280;63257;55.082;38.772;2022-12-18T07:47:25;99334.47;;;-4.28;75.04
71948;BME280;63257;55.082;38.772;2022-12-18T07:49:51;99351.66;;;-4.20;73.96
71948;BME280;63257;55.082;38.772;2022-12-18T07:52:18;99325.03;;;-4.35;74.73
71948;BME280;63257;55.082;38.772;2022-12-18T07:54:45;99329.38;;;-4.52;74.21
71948;BME280;63257;55.082;38.772;2022-12-18T07:57:11;99353.38;;;-4.27;74.67
71948;BME280;63257;55.082;38.772;2022-12-18T07:59:40;99385.16;;;-4.28;74.22
71948;BME280;63257;55.082;38.772;2022-12-18T08:02:06;99379.13;;;-4.13;74.14
71948;BME280;63257;55.082;38.772;2022-12-18T08:04:32;99363.66;;;-4.13;74.18
71948;BME280;63257;55.082;38.772;2022-12-18T08:07:01;99355.13;;;-4.35;73.74
71948;BME280;63257;55.082;38.772;2022-12-18T08:09:27;99384.25;;;-4.09;73.03
71948;BME280;63257;55.082;38.772;2022-12-18T08:11:53;99395.38;;;-3.97;73.10
71948;BME280;63257;55.082;38.772;2022-12-18T08:14:21;99380.78;;;-4.03;72.87
71948;BME280;63257;55.082;38.772;2022-12-18T08:16:48;99380.84;;;-4.12;73.04
71948;BME280;63257;55.082;38.772;2022-12-18T08:19:14;99367.94;;;-4.14;73.30
71948;BME280;63257;55.082;38.772;2022-12-18T08:21:39;99388.53;;;-4.07;72.99
71948;BME280;63257;55.082;38.772;2022-12-18T08:24:08;99385.09;;;-4.11;72.75
71948;BME280;63257;55.082;38.772;2022-12-18T08:26:34;99367.16;;;-4.45;72.61
71948;BME280;63257;55.082;38.772;2022-12-18T08:29:03;99400.59;;;-4.22;72.79
71948;BME280;63257;55.082;38.772;2022-12-18T08:31:30;99398.91;;;-4.29;72.76
71948;BME280;63257;55.082;38.772;2022-12-18T08:33:56;99399.75;;;-4.15;72.63
71948;BME280;63257;55.082;38.772;2022-12-18T08:36:23;99411.75;;;-4.06;72.33
71948;BME280;63257;55.082;38.772;2022-12-18T08:38:49;99425.47;;;-4.01;72.20
71948;BME280;63257;55.082;38.772;2022-12-18T08:41:16;99424.63;;;-4.04;72.07
71948;BME280;63257;55.082;38.772;2022-12-18T08:43:42;99418.63;;;-4.06;72.23
71948;BME280;63257;55.082;38.772;2022-12-18T08:46:35;99448.72;;;-4.13;72.00
71948;BME280;63257;55.082;38.772;2022-12-18T08:49:01;99446.97;;;-4.11;72.53
71948;BME280;63257;55.082;38.772;2022-12-18T08:51:27;99468.47;;;-4.31;72.79
71948;BME280;63257;55.082;38.772;2022-12-18T08:53:52;99462.47;;;-4.39;72.15
71948;BME280;63257;55.082;38.772;2022-12-18T08:56:18;99465.03;;;-4.39;72.50
71948;BME280;63257;55.082;38.772;2022-12-18T08:58:44;99481.34;;;-4.51;73.45
71948;BME280;63257;55.082;38.772;2022-12-18T09:04:27;99477.94;;;-4.33;73.15
71948;BME280;63257;55.082;38.772;2022-12-18T09:06:55;99462.47;;;-4.53;71.96
71948;BME280;63257;55.082;38.772;2022-12-18T09:09:22;99469.34;;;-4.26;72.43
71948;BME280;63257;55.082;38.772;2022-12-18T09:11:48;99474.47;;;-4.43;72.01
71948;BME280;63257;55.082;38.772;2022-12-18T09:14:13;99477.06;;;-4.44;72.37
71948;BME280;63257;55.082;38.772;2022-12-18T09:16:39;99485.69;;;-4.33;72.69
71948;BME280;63257;55.082;38.772;2022-12-18T09:19:05;99484.81;;;-4.36;72.23
71948;BME280;63257;55.082;38.772;2022-12-18T09:21:34;99492.53;;;-4.47;72.32
71948;BME280;63257;55.082;38.772;2022-12-18T09:24:14;99502.81;;;-4.44;72.62
71948;BME280;63257;55.082;38.772;2022-12-18T09:26:40;99523.47;;;-4.38;72.74
71948;BME280;63257;55.082;38.772;2022-12-18T09:29:06;99506.28;;;-4.42;72.54
71948;BME280;63257;55.082;38.772;2022-12-18T09:31:33;99499.41;;;-4.46;72.73
71948;BME280;63257;55.082;38.772;2022-12-18T09:34:02;99495.09;;;-4.43;72.43
71948;BME280;63257;55.082;38.772;2022-12-18T09:36:32;99492.50;;;-4.55;72.04
71948;BME280;63257;55.082;38.772;2022-12-18T09:38:57;99471.03;;;-4.77;71.97
71948;BME280;63257;55.082;38.772;2022-12-18T09:41:43;99507.09;;;-4.65;72.29
71948;BME280;63257;55.082;38.772;2022-12-18T09:49:29;99500.22;;;-4.89;72.10
71948;BME280;63257;55.082;38.772;2022-12-18T09:52:09;99565.53;;;-4.36;72.04
71948;BME280;63257;55.082;38.772;2022-12-18T09:54:42;99502.78;;;-4.84;72.29
71948;BME280;63257;55.082;38.772;2022-12-18T09:57:21;99524.25;;;-4.71;71.41
71948;BME280;63257;55.082;38.772;2022-12-18T09:59:54;99513.06;;;-4.83;71.43
71948;BME280;63257;55.082;38.772;2022-12-18T10:02:23;99507.88;;;-5.06;71.50
71948;BME280;63257;55.082;38.772;2022-12-18T10:07:55;99559.50;;;-4.47;71.21
71948;BME280;63257;55.082;38.772;2022-12-18T10:21:03;99535.44;;;-4.74;71.11
71948;BME280;63257;55.082;38.772;2022-12-18T10:23:57;99557.75;;;-4.67;71.78
71948;BME280;63257;55.082;38.772;2022-12-18T10:26:28;99510.47;;;-4.97;71.13
71948;BME280;63257;55.082;38.772;2022-12-18T10:28:59;99592.97;;;-4.64;71.52
71948;BME280;63257;55.082;38.772;2022-12-18T10:31:25;99571.50;;;-4.65;71.72
71948;BME280;63257;55.082;38.772;2022-12-18T10:33:56;99514.78;;;-4.91;71.01
71948;BME280;63257;55.082;38.772;2022-12-18T10:36:23;99609.31;;;-4.51;71.63
71948;BME280;63257;55.082;38.772;2022-12-18T10:38:50;99534.53;;;-4.85;71.49
71948;BME280;63257;55.082;38.772;2022-12-18T10:43:47;99623.94;;;-4.35;70.85
71948;BME280;63257;55.082;38.772;2022-12-18T10:46:19;99605.03;;;-4.40;71.01
71948;BME280;63257;55.082;38.772;2022-12-18T10:48:54;99608.41;;;-4.67;71.11
71948;BME280;63257;55.082;38.772;2022-12-18T10:51:29;99609.31;;;-4.48;70.90
71948;BME280;63257;55.082;38.772;2022-12-18T10:56:29;99555.09;;;-4.98;71.32
71948;BME280;63257;55.082;38.772;2022-12-18T10:59:07;99629.03;;;-4.63;71.30
71948;BME280;63257;55.082;38.772;2022-12-18T11:01:52;99659.94;;;-4.60;72.46
71948;BME280;63257;55.082;38.772;2022-12-18T11:04:28;99614.31;;;-4.95;72.62
71948;BME280;63257;55.082;38.772;2022-12-18T11:09:28;99649.63;;;-4.64;72.15
71948;BME280;63257;55.082;38.772;2022-12-18T11:11:57;99643.56;;;-4.77;72.02
71948;BME280;63257;55.082;38.772;2022-12-18T11:14:28;99582.56;;;-4.92;72.56
71948;BME280;63257;55.082;38.772;2022-12-18T11:16:55;99596.31;;;-4.95;72.30
71948;BME280;63257;55.082;38.772;2022-12-18T11:19:39;99583.34;;;-5.10;73.00
71948;BME280;63257;55.082;38.772;2022-12-18T11:22:26;99650.53;;;-4.57;73.41
71948;BME280;63257;55.082;38.772;2022-12-18T11:25:04;99637.59;;;-4.65;73.37
71948;BME280;63257;55.082;38.772;2022-12-18T11:27:31;99641.03;;;-4.71;73.49
71948;BME280;63257;55.082;38.772;2022-12-18T11:32:35;99656.53;;;-4.54;73.63
71948;BME280;63257;55.082;38.772;2022-12-18T11:35:25;99638.41;;;-4.75;73.76
71948;BME280;63257;55.082;38.772;2022-12-18T11:37:57;99671.09;;;-4.64;74.45
71948;BME280;63257;55.082;38.772;2022-12-18T11:40:31;99673.72;;;-4.54;74.67
71948;BME280;63257;55.082;38.772;2022-12-18T11:43:07;99684.81;;;-4.65;75.57
71948;BME280;63257;55.082;38.772;2022-12-18T11:45:43;99684.81;;;-4.72;75.89
71948;BME280;63257;55.082;38.772;2022-12-18T11:48:34;99704.56;;;-4.65;75.58
71948;BME280;63257;55.082;38.772;2022-12-18T11:51:05;99712.25;;;-4.76;76.26
71948;BME280;63257;55.082;38.772;2022-12-18T11:53:35;99712.28;;;-4.67;76.52
71948;BME280;63257;55.082;38.772;2022-12-18T12:01:20;99714.81;;;-4.76;76.88
71948;BME280;63257;55.082;38.772;2022-12-18T12:04:08;99673.34;;;-5.24;76.59
71948;BME280;63257;55.082;38.772;2022-12-18T12:06:54;99732.84;;;-4.74;76.67
71948;BME280;63257;55.082;38.772;2022-12-18T12:12:30;99751.75;;;-4.74;76.96
71948;BME280;63257;55.082;38.772;2022-12-18T12:15:26;99751.75;;;-4.71;76.83
71948;BME280;63257;55.082;38.772;2022-12-18T12:18:25;99750.97;;;-4.57;76.43
71948;BME280;63257;55.082;38.772;2022-12-18T12:26:45;99761.25;;;-4.59;76.47
71948;BME280;63257;55.082;38.772;2022-12-18T12:32:31;99757.81;;;-4.60;76.15
71948;BME280;63257;55.082;38.772;2022-12-18T12:35:37;99769.88;;;-4.57;76.52
71948;BME280;63257;55.082;38.772;2022-12-18T12:38:11;99785.31;;;-4.62;76.41
71948;BME280;63257;55.082;38.772;2022-12-18T12:40:47;99775.78;;;-4.75;77.11
71948;BME280;63257;55.082;38.772;2022-12-18T12:46:16;99780.91;;;-4.77;77.23
71948;BME280;63257;55.082;38.772;2022-12-18T12:54:19;99792.91;;;-4.77;77.69
71948;BME280;63257;55.082;38.772;2022-12-18T12:57:09;99809.28;;;-4.70;77.71
71948;BME280;63257;55.082;38.772;2022-12-18T12:59:50;99811.84;;;-4.72;78.15
71948;BME280;63257;55.082;38.772;2022-12-18T13:02:35;99823.72;;;-4.88;78.55
71948;BME280;63257;55.082;38.772;2022-12-18T13:05:22;99805.78;;;-4.75;78.71
71948;BME280;63257;55.082;38.772;2022-12-18T13:08:21;99810.00;;;-4.88;79.07
71948;BME280;63257;55.082;38.772;2022-12-18T13:10:47;99841.06;;;-4.68;78.95
71948;BME280;63257;55.082;38.772;2022-12-18T13:13:15;99812.59;;;-4.84;79.70
71948;BME280;63257;55.082;38.772;2022-12-18T13:20:48;99843.59;;;-4.73;79.42
71948;BME280;63257;55.082;38.772;2022-12-18T13:23:38;99845.34;;;-4.67;79.54
71948;BME280;63257;55.082;38.772;2022-12-18T13:28:51;99857.31;;;-4.75;79.29
71948;BME280;63257;55.082;38.772;2022-12-18T13:34:18;99861.59;;;-4.76;79.07
71948;BME280;63257;55.082;38.772;2022-12-18T13:36:45;99852.22;;;-4.65;79.02
71948;BME280;63257;55.082;38.772;2022-12-18T13:39:24;99884.81;;;-4.71;79.36
71948;BME280;63257;55.082;38.772;2022-12-18T13:41:54;99887.47;;;-4.62;79.60
71948;BME280;63257;55.082;38.772;2022-12-18T13:44:58;99891.69;;;-4.69;80.13
71948;BME280;63257;55.082;38.772;2022-12-18T13:47:32;99887.34;;;-4.76;80.43
71948;BME280;63257;55.082;38.772;2022-12-18T13:49:59;99899.50;;;-4.63;79.87
71948;BME280;63257;55.082;38.772;2022-12-18T13:52:28;99902.94;;;-4.59;80.22
71948;BME280;63257;55.082;38.772;2022-12-18T13:55:00;99921.78;;;-4.66;80.39
71948;BME280;63257;55.082;38.772;2022-12-18T13:59:52;99914.81;;;-4.78;80.56
71948;BME280;63257;55.082;38.772;2022-12-18T14:02:22;99933.81;;;-4.65;80.07
71948;BME280;63257;55.082;38.772;2022-12-18T14:04:49;99936.25;;;-4.81;80.35
71948;BME280;63257;55.082;38.772;2022-12-18T14:07:22;99926.81;;;-4.80;81.15
71948;BME280;63257;55.082;38.772;2022-12-18T14:09:56;99936.25;;;-4.82;80.98
71948;BME280;63257;55.082;38.772;2022-12-18T14:12:27;99950.91;;;-4.72;81.07
71948;BME280;63257;55.082;38.772;2022-12-18T14:15:32;99948.25;;;-4.81;81.02
71948;BME280;63257;55.082;38.772;2022-12-18T14:20:41;99965.47;;;-4.75;81.11
71948;BME280;63257;55.082;38.772;2022-12-18T14:26:18;99955.97;;;-4.81;81.11
71948;BME280;63257;55.082;38.772;2022-12-18T14:28:46;99904.22;;;-5.09;82.32
71948;BME280;63257;55.082;38.772;2022-12-18T14:31:20;99971.50;;;-4.75;81.20
71948;BME280;63257;55.082;38.772;2022-12-18T14:33:47;99984.44;;;-4.67;80.94
71948;BME280;63257;55.082;38.772;2022-12-18T14:36:36;99984.50;;;-4.61;81.49
71948;BME280;63257;55.082;38.772;2022-12-18T14:39:17;99951.63;;;-4.90;81.08
71948;BME280;63257;55.082;38.772;2022-12-18T14:41:51;99938.59;;;-5.05;81.11
71948;BME280;63257;55.082;38.772;2022-12-18T14:44:18;99961.13;;;-4.81;81.42
71948;BME280;63257;55.082;38.772;2022-12-18T14:46:45;99949.06;;;-4.87;81.29
71948;BME280;63257;55.082;38.772;2022-12-18T14:49:32;99997.41;;;-4.56;81.32
71948;BME280;63257;55.082;38.772;2022-12-18T14:52:05;99932.69;;;-4.92;80.94
71948;BME280;63257;55.082;38.772;2022-12-18T14:54:33;99980.75;;;-4.92;80.65
71948;BME280;63257;55.082;38.772;2022-12-18T14:57:03;99959.13;;;-5.12;80.76